Taiko Maru — JL6417 — position and weather

sailwx.info

Track history (hours):
 
Tides and Currents Weather Stations Pressure Air Temp Water Temp Dewpoint Dewpoint Depression Visibility Wind Speed Wind Dir Waves Ship Positions

Taiko Maru

Last reported at 2017-Dec-15 12:53 UTC. Time now 2017-Dec-15 14:07 UTC.
Position N 34°58' E 139°43'.

Length 73 m; draft 5.2 m.

Type: Tanker. MMSI: 431500395.

Date/timePositionNaut miles runAvg speedWind from/ knotsBaromVisibWave heightAir tempDewpointWater temp
2017-Dec-15 12:53N 34°58' E 139°43'512.1
2017-Dec-15 12:29N 35°03' E 139°43'611.8
2017-Dec-15 12:00N 35°09' E 139°45'612.1
2017-Dec-15 11:31N 35°15' E 139°46'611.7
2017-Dec-15 11:01N 35°20' E 139°43'511.0
2017-Dec-15 10:30N 35°25' E 139°44'611.7
2017-Dec-15 10:00N 35°29' E 139°50'711.7
2017-Dec-15 09:23N 35°32' E 139°58'411.3
2017-Dec-15 09:00N 35°34' E 140°02'2 0.8
2017-Dec-15 06:21N 35°33' E 140°05'0 0.0
2017-Dec-15 05:45N 35°33' E 140°05'0 0.0
2017-Dec-15 02:15N 35°33' E 140°05'0 0.0
2017-Dec-15 01:00N 35°33' E 140°05'2 3.3
2017-Dec-15 00:31N 35°34' E 140°03'7 0.3
2017-Dec-14 01:25N 35°40' E 139°59'410.1
2017-Dec-14 01:00N 35°36' E 139°59'611.9
2017-Dec-14 00:29N 35°31' E 139°54'611.8
2017-Dec-14 00:00N 35°27' E 139°49'611.6
2017-Dec-13 23:31N 35°22' E 139°45'510.4
2017-Dec-13 23:00N 35°17' E 139°46'611.0
2017-Dec-13 22:30N 35°11' E 139°47'711.6
2017-Dec-13 21:57N 35°05' E 139°43'511.6
2017-Dec-13 21:30N 35°01' E 139°39'611.9
2017-Dec-13 20:59N 34°57' E 139°33'1912.3
2017-Dec-13 19:27N 34°46' E 139°15'812.4
2017-Dec-13 18:50N 34°42' E 139°07'412.2
2017-Dec-13 18:30N 34°39' E 139°03'611.7
2017-Dec-13 17:59N 34°36' E 138°57'1411.9
2017-Dec-13 16:50N 34°34' E 138°41'512.4
2017-Dec-13 16:28N 34°33' E 138°35'712.5
2017-Dec-13 15:55N 34°33' E 138°27'912.7
2017-Dec-13 15:12N 34°32' E 138°16'1613.4
2017-Dec-13 14:03N 34°34' E 137°57'013.5
2017-Dec-13 14:00N 34°34' E 137°57'150 9.6
2017-Dec-12 22:25N 34°00' E 135°00'612.5
2017-Dec-12 21:57N 34°06' E 134°59'612.6
2017-Dec-12 21:31N 34°12' E 134°59'611.9
2017-Dec-12 21:01N 34°18' E 134°59'611.7
2017-Dec-12 20:31N 34°23' E 135°00'612.0
2017-Dec-12 20:01N 34°29' E 135°02'611.2
2017-Dec-12 19:31N 34°35' E 135°03'4 8.3
2017-Dec-12 19:00N 34°37' E 134°58'611.5
2017-Dec-12 18:30N 34°34' E 134°52'612.0
2017-Dec-12 18:01N 34°32' E 134°46'612.3
2017-Dec-12 17:30N 34°29' E 134°39'612.3
2017-Dec-12 17:00N 34°27' E 134°32'9111.4
2017-Dec-12 09:01N 34°01' E 132°46'112.5
2017-Dec-12 08:56N 34°00' E 132°45'612.7
2017-Dec-12 08:30N 33°55' E 132°43'4 0.6
2017-Dec-12 02:25N 33°51' E 132°42'1 1.3
2017-Dec-12 01:58N 33°52' E 132°42'1 2.7
2017-Dec-12 01:29N 33°52' E 132°41'0 0.0
2017-Dec-11 18:13N 33°52' E 132°41'0 0.0
2017-Dec-10 22:47N 33°52' E 132°41'2 6.1
2017-Dec-10 22:30N 33°51' E 132°39'4 6.0
2017-Dec-10 21:54N 33°55' E 132°38'411.0
2017-Dec-10 21:30N 33°58' E 132°42'87 9.4
2017-Dec-10 12:13N 34°25' E 134°23'411.0
2017-Dec-10 11:53N 34°27' E 134°27'411.0
2017-Dec-10 11:30N 34°28' E 134°32'510.6
2017-Dec-10 11:00N 34°30' E 134°37'510.6
2017-Dec-10 10:30N 34°32' E 134°43'510.5
2017-Dec-10 10:00N 34°34' E 134°49'5 9.6
2017-Dec-10 09:30N 34°36' E 134°55'5 9.3
2017-Dec-10 09:00N 34°38' E 135°00'5 9.6
2017-Dec-10 08:31N 34°36' E 135°06'5 9.8
2017-Dec-10 08:01N 34°36' E 135°12'510.6
2017-Dec-10 07:30N 34°37' E 135°18'510.9
2017-Dec-10 07:00N 34°36' E 135°25'2 3.5
2017-Dec-10 06:28N 34°34' E 135°26'0 0.0
2017-Dec-10 05:58N 34°34' E 135°26'0 0.0
2017-Dec-10 05:25N 34°34' E 135°26'0 0.0
2017-Dec-10 04:58N 34°34' E 135°26'0 0.0
2017-Dec-10 04:28N 34°34' E 135°26'0 0.0
2017-Dec-10 03:58N 34°34' E 135°26'0 0.0
2017-Dec-10 03:28N 34°34' E 135°26'0 0.0
2017-Dec-10 02:55N 34°34' E 135°26'0 0.0
2017-Dec-10 02:28N 34°34' E 135°26'0 0.0
2017-Dec-10 01:58N 34°34' E 135°26'0 0.0
2017-Dec-10 01:28N 34°34' E 135°26'0 0.0
2017-Dec-10 00:58N 34°34' E 135°26'0 0.0
2017-Dec-10 00:28N 34°34' E 135°26'0 0.0
2017-Dec-09 23:58N 34°34' E 135°26'0 0.0
2017-Dec-09 23:28N 34°34' E 135°26'0 0.0
2017-Dec-09 23:01N 34°34' E 135°26'0 0.8
2017-Dec-09 22:30N 34°35' E 135°25'2 4.9
2017-Dec-09 22:01N 34°36' E 135°23'0 0.5
2017-Dec-09 21:30N 34°36' E 135°23'0 0.0
2017-Dec-09 21:00N 34°36' E 135°23'0 0.0
2017-Dec-09 20:30N 34°36' E 135°23'0 0.1
2017-Dec-09 20:00N 34°36' E 135°23'0 0.0
2017-Dec-09 19:30N 34°36' E 135°23'0 0.0
2017-Dec-09 19:00N 34°36' E 135°23'0 0.0
2017-Dec-09 18:30N 34°36' E 135°23'0 0.0
2017-Dec-09 18:00N 34°36' E 135°23'0 0.0
2017-Dec-09 17:30N 34°36' E 135°23'0 0.0
2017-Dec-09 17:00N 34°36' E 135°23'0 0.1
2017-Dec-09 16:30N 34°36' E 135°23'0 0.0
2017-Dec-09 16:00N 34°36' E 135°23'0 0.0
2017-Dec-09 15:30N 34°36' E 135°23'0 0.1
2017-Dec-09 15:00N 34°36' E 135°23'0 0.0
2017-Dec-09 14:30N 34°36' E 135°23'0 0.0
2017-Dec-09 14:00N 34°36' E 135°23'0 0.1
2017-Dec-09 13:30N 34°36' E 135°23'0 0.1
2017-Dec-09 13:00N 34°36' E 135°23'0 0.0
2017-Dec-09 12:30N 34°36' E 135°23'0 0.0
2017-Dec-09 12:00N 34°36' E 135°23'0 0.0
2017-Dec-09 11:30N 34°36' E 135°23'0 0.0
2017-Dec-09 11:00N 34°36' E 135°23'0 0.0
2017-Dec-09 10:30N 34°36' E 135°23'1 2.1
2017-Dec-09 10:00N 34°35' E 135°22'611.8
2017-Dec-09 09:30N 34°33' E 135°15'612.6
2017-Dec-09 09:00N 34°35' E 135°08'713.5
2017-Dec-09 08:30N 34°37' E 135°00'713.5
2017-Dec-09 08:01N 34°35' E 134°53'612.2
2017-Dec-09 07:31N 34°32' E 134°46'612.2
2017-Dec-09 07:01N 34°30' E 134°39'612.6
2017-Dec-09 06:31N 34°27' E 134°32'6 0.6
2017-Dec-08 19:32N 34°26' E 134°25'210.4
2017-Dec-08 19:18N 34°27' E 134°27'310.3
2017-Dec-08 19:00N 34°28' E 134°31'510.2
2017-Dec-08 18:30N 34°30' E 134°37'510.2
2017-Dec-08 18:00N 34°32' E 134°42'510.9
2017-Dec-08 17:30N 34°34' E 134°48'511.0
2017-Dec-08 17:00N 34°36' E 134°55'611.0
2017-Dec-08 16:30N 34°37' E 135°01'510.5
2017-Dec-08 16:00N 34°36' E 135°07'511.0
2017-Dec-08 15:31N 34°36' E 135°14'611.5
2017-Dec-08 15:01N 34°36' E 135°21'4 8.8
2017-Dec-08 14:30N 34°35' E 135°26'0 0.4
2017-Dec-08 13:50N 34°34' E 135°26'0 0.0
2017-Dec-08 13:29N 34°34' E 135°26'0 0.0
2017-Dec-08 12:59N 34°34' E 135°26'0 0.0
2017-Dec-08 12:29N 34°34' E 135°26'0 0.0
2017-Dec-08 11:59N 34°34' E 135°26'0 0.0
2017-Dec-08 11:29N 34°34' E 135°26'0 0.0
2017-Dec-08 10:53N 34°34' E 135°26'0 0.0
2017-Dec-08 10:29N 34°34' E 135°26'0 0.0
2017-Dec-08 09:59N 34°34' E 135°26'0 0.0
2017-Dec-08 09:29N 34°34' E 135°26'0 0.0
2017-Dec-08 08:59N 34°34' E 135°26'0 0.0
2017-Dec-08 08:29N 34°34' E 135°26'0 0.0
2017-Dec-08 07:59N 34°34' E 135°26'0 0.0
2017-Dec-08 07:29N 34°34' E 135°26'0 0.0
2017-Dec-08 07:01N 34°34' E 135°26'2 3.4
2017-Dec-08 06:30N 34°36' E 135°25'1 2.8
2017-Dec-08 06:01N 34°35' E 135°23'0 0.1
2017-Dec-08 05:29N 34°35' E 135°23'0 0.0
2017-Dec-08 04:59N 34°35' E 135°23'0 0.0
2017-Dec-08 04:29N 34°35' E 135°23'0 0.0
2017-Dec-08 03:59N 34°35' E 135°23'0 0.0
2017-Dec-08 03:29N 34°35' E 135°23'0 0.0
2017-Dec-08 02:59N 34°35' E 135°23'0 0.0
2017-Dec-08 02:29N 34°35' E 135°23'0 0.0
2017-Dec-08 01:59N 34°35' E 135°23'0 0.0
2017-Dec-08 01:29N 34°35' E 135°23'0 0.0
2017-Dec-08 00:59N 34°35' E 135°23'0 0.0
2017-Dec-08 00:29N 34°35' E 135°23'0 0.0
2017-Dec-07 23:59N 34°35' E 135°23'0 0.0
2017-Dec-07 23:29N 34°35' E 135°23'0 0.0
2017-Dec-07 22:59N 34°35' E 135°23'0 0.0
2017-Dec-07 22:29N 34°35' E 135°23'0 0.1
2017-Dec-07 21:59N 34°35' E 135°23'0 0.0
2017-Dec-07 21:29N 34°35' E 135°23'0 0.0
2017-Dec-07 20:59N 34°35' E 135°23'0 0.1
2017-Dec-07 20:29N 34°35' E 135°23'0 0.0
2017-Dec-07 19:59N 34°35' E 135°23'0 0.0
2017-Dec-07 19:29N 34°35' E 135°23'0 0.1
2017-Dec-07 18:59N 34°35' E 135°23'0 0.1
2017-Dec-07 18:29N 34°35' E 135°23'0 0.0
2017-Dec-07 17:59N 34°35' E 135°23'0 0.0
2017-Dec-07 17:29N 34°35' E 135°23'0 0.0
2017-Dec-07 16:56N 34°35' E 135°23'0 0.0
2017-Dec-07 16:29N 34°35' E 135°23'0 0.0
2017-Dec-07 15:59N 34°35' E 135°23'0 0.0
2017-Dec-07 15:29N 34°35' E 135°23'0 0.0
2017-Dec-07 14:59N 34°35' E 135°23'0 0.1
2017-Dec-07 14:29N 34°35' E 135°23'0 0.0
2017-Dec-07 13:56N 34°35' E 135°23'0 0.1
2017-Dec-07 13:29N 34°35' E 135°23'0 0.0
2017-Dec-07 12:59N 34°35' E 135°23'0 0.0
2017-Dec-07 12:29N 34°35' E 135°23'0 0.0
2017-Dec-07 11:59N 34°35' E 135°23'0 0.0
2017-Dec-07 11:29N 34°35' E 135°23'0 0.0
2017-Dec-07 10:59N 34°35' E 135°23'0 0.0
2017-Dec-07 10:29N 34°35' E 135°23'0 0.9
2017-Dec-07 10:00N 34°35' E 135°23'611.8
2017-Dec-07 09:30N 34°35' E 135°16'612.7
2017-Dec-07 09:00N 34°34' E 135°08'714.4
2017-Dec-07 08:30N 34°37' E 134°60'714.5
2017-Dec-07 08:00N 34°34' E 134°52'612.9
2017-Dec-07 07:30N 34°32' E 134°44'612.7
2017-Dec-07 07:00N 34°29' E 134°37'612.6
2017-Dec-07 06:30N 34°27' E 134°30'  
Track history (hours):
 
Tides and Currents Weather Stations Pressure Air Temp Water Temp Dewpoint Dewpoint Depression Visibility Wind Speed Wind Dir Waves Ship Positions

Taiko Maru

Last reported at 2017-Dec-15 12:53 UTC. Time now 2017-Dec-15 14:07 UTC.
Position N 34°58' E 139°43'.

Length 73 m; draft 5.2 m.

Type: Tanker. MMSI: 431500395.

Date/timePositionNaut miles runAvg speedWind from/ knotsBaromVisibWave heightAir tempDewpointWater temp
2017-Dec-15 12:53N 34°58' E 139°43'512.1
2017-Dec-15 12:29N 35°03' E 139°43'611.8
2017-Dec-15 12:00N 35°09' E 139°45'612.1
2017-Dec-15 11:31N 35°15' E 139°46'611.7
2017-Dec-15 11:01N 35°20' E 139°43'511.0
2017-Dec-15 10:30N 35°25' E 139°44'611.7
2017-Dec-15 10:00N 35°29' E 139°50'711.7
2017-Dec-15 09:23N 35°32' E 139°58'411.3
2017-Dec-15 09:00N 35°34' E 140°02'2 0.8
2017-Dec-15 06:21N 35°33' E 140°05'0 0.0
2017-Dec-15 05:45N 35°33' E 140°05'0 0.0
2017-Dec-15 02:15N 35°33' E 140°05'0 0.0
2017-Dec-15 01:00N 35°33' E 140°05'2 3.3
2017-Dec-15 00:31N 35°34' E 140°03'7 0.3
2017-Dec-14 01:25N 35°40' E 139°59'410.1
2017-Dec-14 01:00N 35°36' E 139°59'611.9
2017-Dec-14 00:29N 35°31' E 139°54'611.8
2017-Dec-14 00:00N 35°27' E 139°49'611.6
2017-Dec-13 23:31N 35°22' E 139°45'510.4
2017-Dec-13 23:00N 35°17' E 139°46'611.0
2017-Dec-13 22:30N 35°11' E 139°47'711.6
2017-Dec-13 21:57N 35°05' E 139°43'511.6
2017-Dec-13 21:30N 35°01' E 139°39'611.9
2017-Dec-13 20:59N 34°57' E 139°33'1912.3
2017-Dec-13 19:27N 34°46' E 139°15'812.4
2017-Dec-13 18:50N 34°42' E 139°07'412.2
2017-Dec-13 18:30N 34°39' E 139°03'611.7
2017-Dec-13 17:59N 34°36' E 138°57'1411.9
2017-Dec-13 16:50N 34°34' E 138°41'512.4
2017-Dec-13 16:28N 34°33' E 138°35'712.5
2017-Dec-13 15:55N 34°33' E 138°27'912.7
2017-Dec-13 15:12N 34°32' E 138°16'1613.4
2017-Dec-13 14:03N 34°34' E 137°57'013.5
2017-Dec-13 14:00N 34°34' E 137°57'150 9.6
2017-Dec-12 22:25N 34°00' E 135°00'612.5
2017-Dec-12 21:57N 34°06' E 134°59'612.6
2017-Dec-12 21:31N 34°12' E 134°59'611.9
2017-Dec-12 21:01N 34°18' E 134°59'611.7
2017-Dec-12 20:31N 34°23' E 135°00'612.0
2017-Dec-12 20:01N 34°29' E 135°02'611.2
2017-Dec-12 19:31N 34°35' E 135°03'4 8.3
2017-Dec-12 19:00N 34°37' E 134°58'611.5
2017-Dec-12 18:30N 34°34' E 134°52'612.0
2017-Dec-12 18:01N 34°32' E 134°46'612.3
2017-Dec-12 17:30N 34°29' E 134°39'612.3
2017-Dec-12 17:00N 34°27' E 134°32'9111.4
2017-Dec-12 09:01N 34°01' E 132°46'112.5
2017-Dec-12 08:56N 34°00' E 132°45'612.7
2017-Dec-12 08:30N 33°55' E 132°43'4 0.6
2017-Dec-12 02:25N 33°51' E 132°42'1 1.3
2017-Dec-12 01:58N 33°52' E 132°42'1 2.7
2017-Dec-12 01:29N 33°52' E 132°41'0 0.0
2017-Dec-11 18:13N 33°52' E 132°41'0 0.0
2017-Dec-10 22:47N 33°52' E 132°41'2 6.1
2017-Dec-10 22:30N 33°51' E 132°39'4 6.0
2017-Dec-10 21:54N 33°55' E 132°38'411.0
2017-Dec-10 21:30N 33°58' E 132°42'87 9.4
2017-Dec-10 12:13N 34°25' E 134°23'411.0
2017-Dec-10 11:53N 34°27' E 134°27'411.0
2017-Dec-10 11:30N 34°28' E 134°32'510.6
2017-Dec-10 11:00N 34°30' E 134°37'510.6
2017-Dec-10 10:30N 34°32' E 134°43'510.5
2017-Dec-10 10:00N 34°34' E 134°49'5 9.6
2017-Dec-10 09:30N 34°36' E 134°55'5 9.3
2017-Dec-10 09:00N 34°38' E 135°00'5 9.6
2017-Dec-10 08:31N 34°36' E 135°06'5 9.8
2017-Dec-10 08:01N 34°36' E 135°12'510.6
2017-Dec-10 07:30N 34°37' E 135°18'510.9
2017-Dec-10 07:00N 34°36' E 135°25'2 3.5
2017-Dec-10 06:28N 34°34' E 135°26'0 0.0
2017-Dec-10 05:58N 34°34' E 135°26'0 0.0
2017-Dec-10 05:25N 34°34' E 135°26'0 0.0
2017-Dec-10 04:58N 34°34' E 135°26'0 0.0
2017-Dec-10 04:28N 34°34' E 135°26'0 0.0
2017-Dec-10 03:58N 34°34' E 135°26'0 0.0
2017-Dec-10 03:28N 34°34' E 135°26'0 0.0
2017-Dec-10 02:55N 34°34' E 135°26'0 0.0
2017-Dec-10 02:28N 34°34' E 135°26'0 0.0
2017-Dec-10 01:58N 34°34' E 135°26'0 0.0
2017-Dec-10 01:28N 34°34' E 135°26'0 0.0
2017-Dec-10 00:58N 34°34' E 135°26'0 0.0
2017-Dec-10 00:28N 34°34' E 135°26'0 0.0
2017-Dec-09 23:58N 34°34' E 135°26'0 0.0
2017-Dec-09 23:28N 34°34' E 135°26'0 0.0
2017-Dec-09 23:01N 34°34' E 135°26'0 0.8
2017-Dec-09 22:30N 34°35' E 135°25'2 4.9
2017-Dec-09 22:01N 34°36' E 135°23'0 0.5
2017-Dec-09 21:30N 34°36' E 135°23'0 0.0
2017-Dec-09 21:00N 34°36' E 135°23'0 0.0
2017-Dec-09 20:30N 34°36' E 135°23'0 0.1
2017-Dec-09 20:00N 34°36' E 135°23'0 0.0
2017-Dec-09 19:30N 34°36' E 135°23'0 0.0
2017-Dec-09 19:00N 34°36' E 135°23'0 0.0
2017-Dec-09 18:30N 34°36' E 135°23'0 0.0
2017-Dec-09 18:00N 34°36' E 135°23'0 0.0
2017-Dec-09 17:30N 34°36' E 135°23'0 0.0
2017-Dec-09 17:00N 34°36' E 135°23'0 0.1
2017-Dec-09 16:30N 34°36' E 135°23'0 0.0
2017-Dec-09 16:00N 34°36' E 135°23'0 0.0
2017-Dec-09 15:30N 34°36' E 135°23'0 0.1
2017-Dec-09 15:00N 34°36' E 135°23'0 0.0
2017-Dec-09 14:30N 34°36' E 135°23'0 0.0
2017-Dec-09 14:00N 34°36' E 135°23'0 0.1
2017-Dec-09 13:30N 34°36' E 135°23'0 0.1
2017-Dec-09 13:00N 34°36' E 135°23'0 0.0
2017-Dec-09 12:30N 34°36' E 135°23'0 0.0
2017-Dec-09 12:00N 34°36' E 135°23'0 0.0
2017-Dec-09 11:30N 34°36' E 135°23'0 0.0
2017-Dec-09 11:00N 34°36' E 135°23'0 0.0
2017-Dec-09 10:30N 34°36' E 135°23'1 2.1
2017-Dec-09 10:00N 34°35' E 135°22'611.8
2017-Dec-09 09:30N 34°33' E 135°15'612.6
2017-Dec-09 09:00N 34°35' E 135°08'713.5
2017-Dec-09 08:30N 34°37' E 135°00'713.5
2017-Dec-09 08:01N 34°35' E 134°53'612.2
2017-Dec-09 07:31N 34°32' E 134°46'612.2
2017-Dec-09 07:01N 34°30' E 134°39'612.6
2017-Dec-09 06:31N 34°27' E 134°32'6 0.6
2017-Dec-08 19:32N 34°26' E 134°25'210.4
2017-Dec-08 19:18N 34°27' E 134°27'310.3
2017-Dec-08 19:00N 34°28' E 134°31'510.2
2017-Dec-08 18:30N 34°30' E 134°37'510.2
2017-Dec-08 18:00N 34°32' E 134°42'510.9
2017-Dec-08 17:30N 34°34' E 134°48'511.0
2017-Dec-08 17:00N 34°36' E 134°55'611.0
2017-Dec-08 16:30N 34°37' E 135°01'510.5
2017-Dec-08 16:00N 34°36' E 135°07'511.0
2017-Dec-08 15:31N 34°36' E 135°14'611.5
2017-Dec-08 15:01N 34°36' E 135°21'4 8.8
2017-Dec-08 14:30N 34°35' E 135°26'0 0.4
2017-Dec-08 13:50N 34°34' E 135°26'0 0.0
2017-Dec-08 13:29N 34°34' E 135°26'0 0.0
2017-Dec-08 12:59N 34°34' E 135°26'0 0.0
2017-Dec-08 12:29N 34°34' E 135°26'0 0.0
2017-Dec-08 11:59N 34°34' E 135°26'0 0.0
2017-Dec-08 11:29N 34°34' E 135°26'0 0.0
2017-Dec-08 10:53N 34°34' E 135°26'0 0.0
2017-Dec-08 10:29N 34°34' E 135°26'0 0.0
2017-Dec-08 09:59N 34°34' E 135°26'0 0.0
2017-Dec-08 09:29N 34°34' E 135°26'0 0.0
2017-Dec-08 08:59N 34°34' E 135°26'0 0.0
2017-Dec-08 08:29N 34°34' E 135°26'0 0.0
2017-Dec-08 07:59N 34°34' E 135°26'0 0.0
2017-Dec-08 07:29N 34°34' E 135°26'0 0.0
2017-Dec-08 07:01N 34°34' E 135°26'2 3.4
2017-Dec-08 06:30N 34°36' E 135°25'1 2.8
2017-Dec-08 06:01N 34°35' E 135°23'0 0.1
2017-Dec-08 05:29N 34°35' E 135°23'0 0.0
2017-Dec-08 04:59N 34°35' E 135°23'0 0.0
2017-Dec-08 04:29N 34°35' E 135°23'0 0.0
2017-Dec-08 03:59N 34°35' E 135°23'0 0.0
2017-Dec-08 03:29N 34°35' E 135°23'0 0.0
2017-Dec-08 02:59N 34°35' E 135°23'0 0.0
2017-Dec-08 02:29N 34°35' E 135°23'0 0.0
2017-Dec-08 01:59N 34°35' E 135°23'0 0.0
2017-Dec-08 01:29N 34°35' E 135°23'0 0.0
2017-Dec-08 00:59N 34°35' E 135°23'0 0.0
2017-Dec-08 00:29N 34°35' E 135°23'0 0.0
2017-Dec-07 23:59N 34°35' E 135°23'0 0.0
2017-Dec-07 23:29N 34°35' E 135°23'0 0.0
2017-Dec-07 22:59N 34°35' E 135°23'0 0.0
2017-Dec-07 22:29N 34°35' E 135°23'0 0.1
2017-Dec-07 21:59N 34°35' E 135°23'0 0.0
2017-Dec-07 21:29N 34°35' E 135°23'0 0.0
2017-Dec-07 20:59N 34°35' E 135°23'0 0.1
2017-Dec-07 20:29N 34°35' E 135°23'0 0.0
2017-Dec-07 19:59N 34°35' E 135°23'0 0.0
2017-Dec-07 19:29N 34°35' E 135°23'0 0.1
2017-Dec-07 18:59N 34°35' E 135°23'0 0.1
2017-Dec-07 18:29N 34°35' E 135°23'0 0.0
2017-Dec-07 17:59N 34°35' E 135°23'0 0.0
2017-Dec-07 17:29N 34°35' E 135°23'0 0.0
2017-Dec-07 16:56N 34°35' E 135°23'0 0.0
2017-Dec-07 16:29N 34°35' E 135°23'0 0.0
2017-Dec-07 15:59N 34°35' E 135°23'0 0.0
2017-Dec-07 15:29N 34°35' E 135°23'0 0.0
2017-Dec-07 14:59N 34°35' E 135°23'0 0.1
2017-Dec-07 14:29N 34°35' E 135°23'0 0.0
2017-Dec-07 13:56N 34°35' E 135°23'0 0.1
2017-Dec-07 13:29N 34°35' E 135°23'0 0.0
2017-Dec-07 12:59N 34°35' E 135°23'0 0.0
2017-Dec-07 12:29N 34°35' E 135°23'0 0.0
2017-Dec-07 11:59N 34°35' E 135°23'0 0.0
2017-Dec-07 11:29N 34°35' E 135°23'0 0.0
2017-Dec-07 10:59N 34°35' E 135°23'0 0.0
2017-Dec-07 10:29N 34°35' E 135°23'0 0.9
2017-Dec-07 10:00N 34°35' E 135°23'611.8
2017-Dec-07 09:30N 34°35' E 135°16'612.7
2017-Dec-07 09:00N 34°34' E 135°08'714.4
2017-Dec-07 08:30N 34°37' E 134°60'714.5
2017-Dec-07 08:00N 34°34' E 134°52'612.9
2017-Dec-07 07:30N 34°32' E 134°44'612.7
2017-Dec-07 07:00N 34°29' E 134°37'612.6
2017-Dec-07 06:30N 34°27' E 134°30'  

Dump ship's entire track history